Time;durP1;ratioP1;P1;durP2;ratioP2;P2;SDS_P1;SDS_P2;PMS_P1;PMS_P2;Temp;Humidity;BMP_temperature;BMP_pressure;BME280_temperature;BME280_humidity;BME280_pressure;Samples;Min_cycle;Max_cycle;Signal;HPM_P1;HPM_P2
2023/04/30 00:00:39;;;;;;;8.73;5.18;;;;;;;;;;6244153;22;20004;-77
2023/04/30 00:03:04;;;;;;;7.43;4.65;;;;;;;;;;6244512;23;20000;-77
2023/04/30 00:05:30;;;;;;;7.47;4.97;;;;;;;;;;6217442;23;20023;-78
2023/04/30 00:07:55;;;;;;;7.80;4.53;;;;;;;;;;6216649;23;20034;-77
2023/04/30 00:10:20;;;;;;;9.68;4.78;;;;;;;;;;6245705;23;20003;-77
2023/04/30 00:12:46;;;;;;;8.10;4.95;;;;;;;;;;6219991;23;20023;-77
2023/04/30 00:15:11;;;;;;;7.20;4.88;;;;;;;;;;6245713;23;20008;-77
2023/04/30 00:17:36;;;;;;;8.43;4.97;;;;;;;;;;6220409;23;20010;-78
2023/04/30 00:20:02;;;;;;;7.00;4.18;;;;;;;;;;6219693;23;20035;-77
2023/04/30 00:22:27;;;;;;;7.90;4.85;;;;;;;;;;6247119;23;20003;-78
2023/04/30 00:24:53;;;;;;;7.80;4.93;;;;;;;;;;6242982;23;20011;-76
2023/04/30 00:27:18;;;;;;;6.60;4.32;;;;;;;;;;6216039;23;20015;-78
2023/04/30 00:29:43;;;;;;;7.15;5.07;;;;;;;;;;6245744;23;20000;-78
2023/04/30 00:32:09;;;;;;;7.45;5.03;;;;;;;;;;6243006;23;20074;-77
2023/04/30 00:34:34;;;;;;;8.18;5.20;;;;;;;;;;6241580;23;20377;-77
2023/04/30 00:37:00;;;;;;;7.70;4.85;;;;;;;;;;6218101;23;20000;-78
2023/04/30 00:39:25;;;;;;;8.55;5.03;;;;;;;;;;6246561;23;20008;-76
2023/04/30 00:41:50;;;;;;;7.50;4.65;;;;;;;;;;6246656;23;20423;-78
2023/04/30 00:44:16;;;;;;;8.85;5.13;;;;;;;;;;6219260;23;20008;-78
2023/04/30 00:46:41;;;;;;;8.80;4.95;;;;;;;;;;6217625;23;20490;-77
2023/04/30 00:49:07;;;;;;;9.68;5.25;;;;;;;;;;6217499;23;20095;-77
2023/04/30 00:51:34;;;;;;;8.80;5.10;;;;;;;;;;6244346;23;20004;-77
2023/04/30 00:54:02;;;;;;;7.75;4.70;;;;;;;;;;6244186;23;20086;-77
2023/04/30 00:56:29;;;;;;;7.65;4.80;;;;;;;;;;6217719;23;20004;-77
2023/04/30 00:58:56;;;;;;;8.75;5.43;;;;;;;;;;6244563;22;20031;-77
2023/04/30 01:01:27;;;;;;;6.88;4.70;;;;;;;;;;6219620;23;19996;-77
2023/04/30 01:03:53;;;;;;;7.55;4.90;;;;;;;;;;6246085;23;20346;-77
2023/04/30 01:06:19;;;;;;;7.32;4.85;;;;;;;;;;6244859;23;20083;-76
2023/04/30 01:08:44;;;;;;;8.38;5.47;;;;;;;;;;6246448;23;20489;-77
2023/04/30 01:11:25;;;;;;;8.25;5.18;;;;;;;;;;6219043;23;20011;-77
2023/04/30 01:14:07;;;;;;;7.53;4.90;;;;;;;;;;6218583;23;20019;-77
2023/04/30 01:16:37;;;;;;;8.18;5.28;;;;;;;;;;6245453;23;20004;-77
2023/04/30 01:19:26;;;;;;;8.43;4.90;;;;;;;;;;6246015;23;20427;-78
2023/04/30 01:21:53;;;;;;;8.93;4.82;;;;;;;;;;6245769;23;19996;-78
2023/04/30 01:24:36;;;;;;;7.90;4.63;;;;;;;;;;6245646;23;20039;-77
2023/04/30 01:27:24;;;;;;;8.65;5.30;;;;;;;;;;6245868;23;20026;-78
2023/04/30 01:29:51;;;;;;;7.40;4.80;;;;;;;;;;6245775;23;20020;-77
2023/04/30 01:32:17;;;;;;;7.95;4.85;;;;;;;;;;6244315;23;20370;-78
2023/04/30 01:34:42;;;;;;;9.77;5.07;;;;;;;;;;6245292;23;20019;-77
2023/04/30 01:37:28;;;;;;;7.57;4.63;;;;;;;;;;6245592;23;20362;-77
2023/04/30 01:40:03;;;;;;;8.23;5.25;;;;;;;;;;6245494;23;20075;-78
2023/04/30 01:42:40;;;;;;;7.00;4.90;;;;;;;;;;6246547;23;20422;-78
2023/04/30 01:45:45;;;;;;;7.95;5.10;;;;;;;;;;6219156;23;20423;-77
2023/04/30 01:48:28;;;;;;;8.13;4.65;;;;;;;;;;6218974;23;20004;-78
2023/04/30 01:51:22;;;;;;;;;;;;;;;;;;6219411;23;20481;-76
2023/04/30 01:53:48;;;;;;;9.80;5.00;;;;;;;;;;6211946;23;20395;-77
2023/04/30 01:56:38;;;;;;;6.82;4.85;;;;;;;;;;6245718;23;20004;-77
2023/04/30 01:59:04;;;;;;;7.43;4.75;;;;;;;;;;6218637;23;20091;-77
2023/04/30 02:01:31;;;;;;;7.38;4.60;;;;;;;;;;6245910;23;20035;-78
2023/04/30 02:03:57;;;;;;;7.68;4.85;;;;;;;;;;6217662;23;20038;-78
2023/04/30 02:06:30;;;;;;;10.45;5.22;;;;;;;;;;6217739;23;20008;-78
2023/04/30 02:09:01;;;;;;;7.82;4.90;;;;;;;;;;6245119;23;20012;-78
2023/04/30 02:11:26;;;;;;;7.50;4.97;;;;;;;;;;6217941;23;20088;-78
2023/04/30 02:13:51;;;;;;;7.40;4.85;;;;;;;;;;6244858;23;20028;-78
2023/04/30 02:16:17;;;;;;;7.35;4.45;;;;;;;;;;6244644;23;20004;-77
2023/04/30 02:18:42;;;;;;;8.50;4.97;;;;;;;;;;6193342;23;20438;-78
2023/04/30 02:21:07;;;;;;;9.18;4.80;;;;;;;;;;6245436;23;20002;-77
2023/04/30 02:23:33;;;;;;;7.38;4.78;;;;;;;;;;6217470;23;20015;-77
2023/04/30 02:25:58;;;;;;;7.93;5.10;;;;;;;;;;6245223;23;20007;-78
2023/04/30 02:28:24;;;;;;;7.82;4.53;;;;;;;;;;6245008;23;20007;-77
2023/04/30 02:30:49;;;;;;;7.55;5.22;;;;;;;;;;6218143;23;20015;-77
2023/04/30 02:33:15;;;;;;;7.05;4.20;;;;;;;;;;6245293;23;20004;-78
2023/04/30 02:35:40;;;;;;;7.03;4.85;;;;;;;;;;6244816;23;20478;-78
2023/04/30 02:38:06;;;;;;;7.10;5.00;;;;;;;;;;6244411;23;20071;-77
2023/04/30 02:40:31;;;;;;;9.27;4.78;;;;;;;;;;6244739;23;20028;-77
2023/04/30 02:42:57;;;;;;;7.85;4.93;;;;;;;;;;6246058;23;20000;-78
2023/04/30 02:45:23;;;;;;;7.13;4.55;;;;;;;;;;6245098;23;20052;-78
2023/04/30 02:47:49;;;;;;;7.07;4.82;;;;;;;;;;6245494;23;20003;-77
2023/04/30 02:50:14;;;;;;;7.78;4.88;;;;;;;;;;6245746;23;20431;-78
2023/04/30 02:52:39;;;;;;;8.57;5.38;;;;;;;;;;6245527;23;20065;-78
2023/04/30 02:55:06;;;;;;;7.78;5.30;;;;;;;;;;6246098;23;20008;-77
2023/04/30 02:57:31;;;;;;;8.40;4.97;;;;;;;;;;6245782;23;20000;-78
2023/04/30 02:59:56;;;;;;;9.57;4.93;;;;;;;;;;6245815;22;20095;-78
2023/04/30 03:02:22;;;;;;;7.78;5.20;;;;;;;;;;6245717;23;20000;-78
2023/04/30 03:04:48;;;;;;;7.28;5.10;;;;;;;;;;6218624;23;20004;-77
2023/04/30 03:07:14;;;;;;;9.15;5.78;;;;;;;;;;6245656;23;20000;-77
2023/04/30 03:09:39;;;;;;;7.22;5.07;;;;;;;;;;6246183;23;20411;-77
2023/04/30 03:12:04;;;;;;;7.13;5.03;;;;;;;;;;6244300;23;20096;-77
2023/04/30 03:14:30;;;;;;;8.70;5.32;;;;;;;;;;6244257;23;20011;-77
2023/04/30 03:16:55;;;;;;;6.72;4.90;;;;;;;;;;6244417;23;20000;-78
2023/04/30 03:19:23;;;;;;;8.57;5.50;;;;;;;;;;6219888;23;20043;-77
2023/04/30 03:21:53;;;;;;;7.30;4.80;;;;;;;;;;6246613;23;20006;-78
2023/04/30 03:24:18;;;;;;;8.88;5.40;;;;;;;;;;6245591;23;20442;-77
2023/04/30 03:26:44;;;;;;;10.45;5.25;;;;;;;;;;6220424;23;20013;-77
2023/04/30 03:29:10;;;;;;;8.05;4.65;;;;;;;;;;6219924;23;20015;-78
2023/04/30 03:31:35;;;;;;;7.00;4.40;;;;;;;;;;6218494;23;20008;-76
2023/04/30 03:34:00;;;;;;;7.40;4.97;;;;;;;;;;6246751;23;20004;-77
2023/04/30 03:36:26;;;;;;;10.05;5.22;;;;;;;;;;6220040;23;20000;-78
2023/04/30 03:38:51;;;;;;;8.35;4.85;;;;;;;;;;6246146;23;20004;-77
2023/04/30 03:41:17;;;;;;;7.63;4.85;;;;;;;;;;6245934;23;20046;-76
2023/04/30 03:43:42;;;;;;;8.73;5.05;;;;;;;;;;6220148;23;20011;-76
2023/04/30 03:46:07;;;;;;;7.85;5.10;;;;;;;;;;6246375;23;20035;-77
2023/04/30 03:48:33;;;;;;;7.40;4.93;;;;;;;;;;6247021;23;20011;-77
2023/04/30 03:50:58;;;;;;;7.57;5.25;;;;;;;;;;6219734;23;20008;-77
2023/04/30 03:53:25;;;;;;;9.32;5.07;;;;;;;;;;6246459;23;20004;-78
2023/04/30 03:55:51;;;;;;;7.50;4.85;;;;;;;;;;6219394;23;20022;-78
2023/04/30 03:58:16;;;;;;;8.43;4.97;;;;;;;;;;6246343;23;20442;-77
2023/04/30 04:00:44;;;;;;;8.20;5.00;;;;;;;;;;6219236;23;20091;-78
2023/04/30 04:03:10;;;;;;;7.80;4.80;;;;;;;;;;6247199;23;20000;-78
2023/04/30 04:05:35;;;;;;;7.90;4.75;;;;;;;;;;6218992;23;20097;-77
2023/04/30 04:08:00;;;;;;;7.25;4.70;;;;;;;;;;6219544;23;20326;-78
2023/04/30 04:10:26;;;;;;;7.25;4.63;;;;;;;;;;6219768;23;20058;-77
2023/04/30 04:12:51;;;;;;;8.52;5.00;;;;;;;;;;6246147;23;20004;-78
2023/04/30 04:15:16;;;;;;;11.00;5.38;;;;;;;;;;6246555;23;20091;-77
2023/04/30 04:17:42;;;;;;;7.28;4.78;;;;;;;;;;6218425;23;20012;-77
2023/04/30 04:20:07;;;;;;;8.73;5.22;;;;;;;;;;6246481;23;20008;-77
2023/04/30 04:22:33;;;;;;;8.32;5.00;;;;;;;;;;6245999;23;19999;-77
2023/04/30 04:24:58;;;;;;;7.85;4.72;;;;;;;;;;6246540;23;20360;-78
2023/04/30 04:27:24;;;;;;;8.07;5.10;;;;;;;;;;6218614;23;20007;-76
2023/04/30 04:29:50;;;;;;;9.65;5.43;;;;;;;;;;6245138;23;20011;-76
2023/04/30 04:32:15;;;;;;;9.10;5.00;;;;;;;;;;6246246;23;20488;-77
2023/04/30 04:34:41;;;;;;;7.35;4.43;;;;;;;;;;6247123;23;20027;-77
2023/04/30 04:37:07;;;;;;;8.68;4.78;;;;;;;;;;6219592;23;20012;-77
2023/04/30 04:39:33;;;;;;;7.97;4.75;;;;;;;;;;6246529;23;20105;-76
2023/04/30 04:41:58;;;;;;;9.05;4.95;;;;;;;;;;6219597;23;20037;-77
2023/04/30 04:44:23;;;;;;;8.65;4.65;;;;;;;;;;6219691;23;20000;-77
2023/04/30 04:46:52;;;;;;;7.70;5.47;;;;;;;;;;6219660;23;20004;-77
2023/04/30 04:49:18;;;;;;;8.60;5.22;;;;;;;;;;6194974;23;20099;-77
2023/04/30 04:51:43;;;;;;;6.80;5.00;;;;;;;;;;6246465;23;20382;-77
2023/04/30 04:54:09;;;;;;;8.27;5.10;;;;;;;;;;6246496;23;20003;-77
2023/04/30 04:56:34;;;;;;;7.32;5.13;;;;;;;;;;6245996;23;20007;-78
2023/04/30 04:59:00;;;;;;;8.20;5.32;;;;;;;;;;6246490;22;20402;-77
2023/04/30 05:01:25;;;;;;;6.88;4.95;;;;;;;;;;6219256;23;20385;-77
2023/04/30 05:03:52;;;;;;;7.85;5.32;;;;;;;;;;6216918;23;20083;-77
2023/04/30 05:06:18;;;;;;;8.40;5.43;;;;;;;;;;6244795;23;20486;-77
2023/04/30 05:08:43;;;;;;;10.30;5.30;;;;;;;;;;6244520;23;20035;-77
2023/04/30 05:11:09;;;;;;;11.45;5.32;;;;;;;;;;6244387;23;20012;-78
2023/04/30 05:13:34;;;;;;;8.02;5.28;;;;;;;;;;6217734;23;20011;-77
2023/04/30 05:16:00;;;;;;;7.78;4.82;;;;;;;;;;6217384;23;20011;-75
2023/04/30 05:18:25;;;;;;;7.32;4.88;;;;;;;;;;6217146;23;20042;-78
2023/04/30 05:20:51;;;;;;;9.95;5.40;;;;;;;;;;6244741;23;20011;-78
2023/04/30 05:23:16;;;;;;;7.68;4.80;;;;;;;;;;6191023;23;20008;-76
2023/04/30 05:25:41;;;;;;;8.88;5.78;;;;;;;;;;6215863;23;20090;-76
2023/04/30 05:28:07;;;;;;;8.27;5.38;;;;;;;;;;6193639;23;20012;-78
2023/04/30 05:30:32;;;;;;;7.95;5.13;;;;;;;;;;6244637;23;20312;-77
2023/04/30 05:32:57;;;;;;;9.38;5.38;;;;;;;;;;6243858;23;20008;-77
2023/04/30 05:35:23;;;;;;;8.55;5.13;;;;;;;;;;6243872;23;20038;-77
2023/04/30 05:37:49;;;;;;;9.13;5.70;;;;;;;;;;6243754;23;20442;-77
2023/04/30 05:40:14;;;;;;;7.30;4.95;;;;;;;;;;6243964;23;20000;-77
2023/04/30 05:42:42;;;;;;;7.97;5.40;;;;;;;;;;6217800;23;20058;-77
2023/04/30 05:45:08;;;;;;;7.50;5.32;;;;;;;;;;6218113;23;20011;-78
2023/04/30 05:47:34;;;;;;;8.10;5.30;;;;;;;;;;6244514;23;20010;-76
2023/04/30 05:49:59;;;;;;;8.93;5.47;;;;;;;;;;6216882;23;20034;-77
2023/04/30 05:52:24;;;;;;;9.02;5.55;;;;;;;;;;6244428;23;20007;-76
2023/04/30 05:54:50;;;;;;;9.98;6.13;;;;;;;;;;6217315;23;20086;-77
2023/04/30 05:57:16;;;;;;;8.82;5.40;;;;;;;;;;6244433;23;20062;-77
2023/04/30 05:59:41;;;;;;;9.65;5.97;;;;;;;;;;6216801;23;20438;-78
2023/04/30 06:02:06;;;;;;;8.13;5.60;;;;;;;;;;6191714;23;20208;-78
2023/04/30 06:04:32;;;;;;;7.38;5.22;;;;;;;;;;6243132;23;20031;-77
2023/04/30 06:06:57;;;;;;;8.15;5.53;;;;;;;;;;6218726;23;20039;-77
2023/04/30 06:09:23;;;;;;;8.85;6.10;;;;;;;;;;6217750;23;20012;-78
2023/04/30 06:11:50;;;;;;;9.13;5.50;;;;;;;;;;6244289;23;20008;-77
2023/04/30 06:14:16;;;;;;;7.82;5.15;;;;;;;;;;6218451;23;20066;-77
2023/04/30 06:16:43;;;;;;;7.85;5.53;;;;;;;;;;6245720;23;20008;-78
2023/04/30 06:19:09;;;;;;;9.15;5.82;;;;;;;;;;6218297;23;20008;-78
2023/04/30 06:21:34;;;;;;;8.77;5.20;;;;;;;;;;6218693;23;19997;-78
2023/04/30 06:23:59;;;;;;;8.35;5.30;;;;;;;;;;6218303;23;20004;-78
2023/04/30 06:26:25;;;;;;;9.05;5.57;;;;;;;;;;6218745;23;20011;-77
2023/04/30 06:28:51;;;;;;;9.65;5.40;;;;;;;;;;6217796;23;20426;-76
2023/04/30 06:31:16;;;;;;;9.77;5.55;;;;;;;;;;6242680;23;20035;-77
2023/04/30 06:33:42;;;;;;;9.10;5.38;;;;;;;;;;6242934;23;20445;-78
2023/04/30 06:36:07;;;;;;;12.13;5.50;;;;;;;;;;6216122;23;20090;-78
2023/04/30 06:38:32;;;;;;;7.78;5.28;;;;;;;;;;6243796;23;20083;-78
2023/04/30 06:40:57;;;;;;;9.55;4.93;;;;;;;;;;6243870;23;20086;-78
2023/04/30 06:43:23;;;;;;;10.20;5.65;;;;;;;;;;6217040;23;20449;-77
2023/04/30 06:45:48;;;;;;;9.93;5.28;;;;;;;;;;6243597;23;20012;-78
2023/04/30 06:48:14;;;;;;;9.52;5.45;;;;;;;;;;6244708;23;20084;-78
2023/04/30 06:50:43;;;;;;;7.72;5.47;;;;;;;;;;6216590;23;20008;-77
2023/04/30 06:53:13;;;;;;;8.57;4.60;;;;;;;;;;6244576;23;20008;-78
2023/04/30 06:55:39;;;;;;;9.38;5.65;;;;;;;;;;6245357;23;20466;-76
2023/04/30 06:58:04;;;;;;;8.63;5.43;;;;;;;;;;6245291;23;20004;-77
2023/04/30 07:00:30;;;;;;;7.75;5.05;;;;;;;;;;6245695;22;20019;-78
2023/04/30 07:02:59;;;;;;;8.20;5.68;;;;;;;;;;6245906;23;20000;-77
2023/04/30 07:05:25;;;;;;;9.63;5.75;;;;;;;;;;6245430;23;20487;-77
2023/04/30 07:07:50;;;;;;;10.15;6.07;;;;;;;;;;6245951;23;20012;-77
2023/04/30 07:10:16;;;;;;;10.10;5.95;;;;;;;;;;6246393;23;20079;-78
2023/04/30 07:12:41;;;;;;;8.15;5.60;;;;;;;;;;6218584;23;20403;-78
2023/04/30 07:15:07;;;;;;;10.40;5.90;;;;;;;;;;6246105;23;20051;-78
2023/04/30 07:17:32;;;;;;;10.38;5.65;;;;;;;;;;6246971;23;20015;-77
2023/04/30 07:19:58;;;;;;;7.78;5.60;;;;;;;;;;6220236;23;20449;-76
2023/04/30 07:22:23;;;;;;;8.38;5.32;;;;;;;;;;6246966;23;20003;-77
2023/04/30 07:24:48;;;;;;;9.45;5.75;;;;;;;;;;6218796;23;20075;-77
2023/04/30 07:27:14;;;;;;;8.02;5.45;;;;;;;;;;6219402;23;20004;-78
2023/04/30 07:29:39;;;;;;;9.32;5.78;;;;;;;;;;6220230;23;20000;-78
2023/04/30 07:32:04;;;;;;;8.02;5.43;;;;;;;;;;6219555;23;20035;-77
2023/04/30 07:34:30;;;;;;;9.15;6.10;;;;;;;;;;6245278;23;20000;-78
2023/04/30 07:36:55;;;;;;;9.90;5.53;;;;;;;;;;6245081;23;20008;-77
2023/04/30 07:39:20;;;;;;;8.80;5.32;;;;;;;;;;6246435;23;20406;-78
2023/04/30 07:41:46;;;;;;;9.07;5.55;;;;;;;;;;6246084;23;20015;-78
2023/04/30 07:44:11;;;;;;;9.32;5.65;;;;;;;;;;6246407;23;20006;-77
2023/04/30 07:46:37;;;;;;;10.35;5.50;;;;;;;;;;6217844;23;20011;-76
2023/04/30 07:49:02;;;;;;;8.73;5.70;;;;;;;;;;6245827;23;20054;-78
2023/04/30 07:51:28;;;;;;;11.00;5.90;;;;;;;;;;6219256;23;20034;-78
2023/04/30 07:53:54;;;;;;;9.77;5.78;;;;;;;;;;6245239;23;20062;-78
2023/04/30 07:56:20;;;;;;;8.73;5.70;;;;;;;;;;6218924;23;20004;-78
2023/04/30 07:58:46;;;;;;;8.65;5.47;;;;;;;;;;6245700;22;20113;-78
2023/04/30 08:01:11;;;;;;;7.80;5.53;;;;;;;;;;6245478;23;20027;-78
2023/04/30 08:03:36;;;;;;;7.97;5.43;;;;;;;;;;6217705;23;20059;-78
2023/04/30 08:06:02;;;;;;;7.80;5.38;;;;;;;;;;6244881;23;20078;-77
2023/04/30 08:08:27;;;;;;;9.32;5.57;;;;;;;;;;6243913;23;20008;-77
2023/04/30 08:10:53;;;;;;;9.60;6.03;;;;;;;;;;6219156;23;20063;-78
2023/04/30 08:13:19;;;;;;;9.10;5.68;;;;;;;;;;6244585;23;20083;-78
2023/04/30 08:15:45;;;;;;;9.90;5.68;;;;;;;;;;6219077;23;20027;-78
2023/04/30 08:18:10;;;;;;;8.15;5.60;;;;;;;;;;6221107;23;20004;-78
2023/04/30 08:20:35;;;;;;;9.82;5.82;;;;;;;;;;6246162;23;20035;-78
2023/04/30 08:23:01;;;;;;;8.18;5.85;;;;;;;;;;6245596;23;20415;-78
2023/04/30 08:25:26;;;;;;;10.10;5.60;;;;;;;;;;6219228;23;20308;-78
2023/04/30 08:27:51;;;;;;;12.18;5.85;;;;;;;;;;6193408;23;20012;-78
2023/04/30 08:30:17;;;;;;;9.82;5.95;;;;;;;;;;6219206;23;20011;-78
2023/04/30 08:32:42;;;;;;;8.27;5.65;;;;;;;;;;6218687;23;20038;-78
2023/04/30 08:35:08;;;;;;;9.93;6.25;;;;;;;;;;6246398;23;20008;-78
2023/04/30 08:37:33;;;;;;;9.38;5.70;;;;;;;;;;6245497;23;20008;-77
2023/04/30 08:39:59;;;;;;;9.15;6.38;;;;;;;;;;6218763;23;20015;-78
2023/04/30 08:42:29;;;;;;;8.43;6.20;;;;;;;;;;6245696;23;20419;-78
2023/04/30 08:44:55;;;;;;;8.85;6.03;;;;;;;;;;6245084;23;20000;-78
2023/04/30 08:47:21;;;;;;;9.05;6.22;;;;;;;;;;6216623;23;20087;-78
2023/04/30 08:49:47;;;;;;;9.88;6.95;;;;;;;;;;6243606;23;20008;-78
2023/04/30 08:52:13;;;;;;;9.93;6.45;;;;;;;;;;6244397;23;20014;-78
2023/04/30 08:54:38;;;;;;;9.48;5.93;;;;;;;;;;6243788;23;20008;-78
2023/04/30 08:57:04;;;;;;;9.75;6.35;;;;;;;;;;6245739;23;20004;-78
2023/04/30 08:59:30;;;;;;;10.43;6.70;;;;;;;;;;6217494;23;20022;-78
2023/04/30 09:01:55;;;;;;;9.70;6.40;;;;;;;;;;6245311;23;20004;-76
2023/04/30 09:04:21;;;;;;;10.60;6.43;;;;;;;;;;6244478;23;20000;-78
2023/04/30 09:06:46;;;;;;;8.75;6.50;;;;;;;;;;6245084;23;20011;-78
2023/04/30 09:09:13;;;;;;;8.40;6.03;;;;;;;;;;6244650;23;20004;-78
2023/04/30 09:11:42;;;;;;;8.52;5.43;;;;;;;;;;6245158;23;20011;-78
2023/04/30 09:14:08;;;;;;;8.35;5.65;;;;;;;;;;6219001;23;20008;-73
2023/04/30 09:16:53;;;;;;;7.40;5.35;;;;;;;;;;6216810;23;20004;-72
2023/04/30 09:19:27;;;;;;;8.13;5.43;;;;;;;;;;6241385;23;20015;-73
2023/04/30 09:21:53;;;;;;;9.40;6.00;;;;;;;;;;6218384;23;20024;-73
2023/04/30 09:24:19;;;;;;;8.75;5.38;;;;;;;;;;6244463;23;20039;-73
2023/04/30 09:26:48;;;;;;;8.60;5.15;;;;;;;;;;6245496;23;20008;-72
2023/04/30 09:29:14;;;;;;;6.88;5.13;;;;;;;;;;6245624;23;20382;-73
2023/04/30 09:31:44;;;;;;;9.48;6.00;;;;;;;;;;6218866;23;20004;-72
2023/04/30 09:34:09;;;;;;;9.75;5.50;;;;;;;;;;6218815;23;20090;-73
2023/04/30 09:36:35;;;;;;;9.95;5.63;;;;;;;;;;6245329;23;20081;-75
2023/04/30 09:39:12;;;;;;;8.15;5.28;;;;;;;;;;6245621;23;20011;-73
2023/04/30 09:41:37;;;;;;;7.03;5.38;;;;;;;;;;6245490;23;20000;-72
2023/04/30 09:44:03;;;;;;;9.10;5.40;;;;;;;;;;6217912;23;20058;-73
2023/04/30 09:46:34;;;;;;;8.10;5.30;;;;;;;;;;6244216;23;20768;-73
2023/04/30 09:49:03;;;;;;;8.32;5.22;;;;;;;;;;6245250;23;20008;-76
2023/04/30 09:51:28;;;;;;;7.90;5.63;;;;;;;;;;6244759;23;20019;-74
2023/04/30 09:53:55;;;;;;;8.98;5.55;;;;;;;;;;6245433;23;19999;-73
2023/04/30 09:56:22;;;;;;;8.40;5.47;;;;;;;;;;6217357;23;20008;-73
2023/04/30 09:58:53;;;;;;;6.15;4.55;;;;;;;;;;6245561;22;20011;-73
2023/04/30 10:01:27;;;;;;;9.30;5.88;;;;;;;;;;6244423;23;20039;-73
2023/04/30 10:03:53;;;;;;;7.53;5.68;;;;;;;;;;6215685;23;20352;-74
2023/04/30 10:06:22;;;;;;;8.38;5.32;;;;;;;;;;6212575;23;20027;-73
2023/04/30 10:08:55;;;;;;;8.90;5.65;;;;;;;;;;6215413;23;20050;-74
2023/04/30 10:11:21;;;;;;;9.43;5.93;;;;;;;;;;6243879;23;20034;-74
2023/04/30 10:13:52;;;;;;;7.10;5.43;;;;;;;;;;6244502;23;20398;-73
2023/04/30 10:16:33;;;;;;;10.93;5.95;;;;;;;;;;6243279;23;20326;-72
2023/04/30 10:19:05;;;;;;;7.57;5.75;;;;;;;;;;6217960;23;20004;-74
2023/04/30 10:21:31;;;;;;;7.18;5.18;;;;;;;;;;6243663;23;20035;-74
2023/04/30 10:23:57;;;;;;;8.35;5.70;;;;;;;;;;6217366;23;20008;-73
2023/04/30 10:26:23;;;;;;;8.32;5.38;;;;;;;;;;6216414;23;20082;-73
2023/04/30 10:28:49;;;;;;;9.85;5.75;;;;;;;;;;6217252;23;20011;-72
2023/04/30 10:31:16;;;;;;;8.45;6.32;;;;;;;;;;6243874;23;20079;-74
2023/04/30 10:34:14;;;;;;;6.72;5.45;;;;;;;;;;6217805;23;20062;-74
2023/04/30 10:36:44;;;;;;;8.23;5.57;;;;;;;;;;6218362;23;20035;-73
2023/04/30 10:39:11;;;;;;;8.55;5.60;;;;;;;;;;6218248;23;20005;-73
2023/04/30 10:41:37;;;;;;;10.38;5.57;;;;;;;;;;6246630;23;19996;-73
2023/04/30 10:44:04;;;;;;;10.50;6.22;;;;;;;;;;6217446;23;20450;-74
2023/04/30 10:46:30;;;;;;;8.02;6.05;;;;;;;;;;6246515;23;20003;-73
2023/04/30 10:48:55;;;;;;;8.27;5.45;;;;;;;;;;6219000;23;20119;-74
2023/04/30 10:51:21;;;;;;;10.05;6.13;;;;;;;;;;6220283;23;20036;-74
2023/04/30 10:53:51;;;;;;;9.30;6.10;;;;;;;;;;6246661;23;20000;-75
2023/04/30 10:56:32;;;;;;;7.75;5.47;;;;;;;;;;6216873;23;20007;-74
2023/04/30 10:59:01;;;;;;;8.65;5.75;;;;;;;;;;6214480;22;20788;-77
2023/04/30 11:01:27;;;;;;;8.13;5.70;;;;;;;;;;6214701;23;20004;-73
2023/04/30 11:04:10;;;;;;;7.40;4.68;;;;;;;;;;6218453;23;20007;-73
2023/04/30 11:06:53;;;;;;;7.80;5.20;;;;;;;;;;6245876;23;20014;-74
2023/04/30 11:09:38;;;;;;;;;;;;;;;;;;6219881;23;20004;-74
2023/04/30 11:12:13;;;;;;;7.68;4.90;;;;;;;;;;6212861;23;19911;-74
2023/04/30 11:14:41;;;;;;;9.63;5.00;;;;;;;;;;6246115;23;20011;-74
2023/04/30 11:17:06;;;;;;;7.97;5.63;;;;;;;;;;6192816;23;20094;-73
2023/04/30 11:19:33;;;;;;;9.68;5.05;;;;;;;;;;6245016;23;20033;-76
2023/04/30 11:22:01;;;;;;;6.82;4.75;;;;;;;;;;6217809;23;20004;-73
2023/04/30 11:24:53;;;;;;;7.70;4.72;;;;;;;;;;6219095;23;20007;-73
2023/04/30 11:27:29;;;;;;;6.30;4.55;;;;;;;;;;6245541;23;20012;-73
2023/04/30 11:29:56;;;;;;;8.13;4.72;;;;;;;;;;6245335;23;20011;-74
2023/04/30 11:32:25;;;;;;;6.22;4.45;;;;;;;;;;6245403;23;20338;-73
2023/04/30 11:34:50;;;;;;;6.30;4.32;;;;;;;;;;6218886;23;20079;-75
2023/04/30 11:37:32;;;;;;;7.05;4.68;;;;;;;;;;6245442;23;20024;-73
2023/04/30 11:40:01;;;;;;;6.85;4.00;;;;;;;;;;6245041;23;20004;-74
2023/04/30 11:42:29;;;;;;;7.88;4.55;;;;;;;;;;6218440;23;20423;-73
2023/04/30 11:45:02;;;;;;;6.90;3.80;;;;;;;;;;6218717;23;20012;-75
2023/04/30 11:47:47;;;;;;;5.97;4.28;;;;;;;;;;6245181;23;20005;-75
2023/04/30 11:50:15;;;;;;;6.25;4.32;;;;;;;;;;6245332;23;20000;-72
2023/04/30 11:52:42;;;;;;;7.68;4.53;;;;;;;;;;6218409;23;20008;-73
2023/04/30 11:55:13;;;;;;;5.35;3.63;;;;;;;;;;6245447;23;20106;-73
2023/04/30 11:57:40;;;;;;;7.50;4.50;;;;;;;;;;6218472;23;20003;-73
2023/04/30 12:00:19;;;;;;;7.32;3.88;;;;;;;;;;6214878;22;20012;-73
2023/04/30 12:02:47;;;;;;;8.52;4.20;;;;;;;;;;6218020;23;20024;-73
2023/04/30 12:05:17;;;;;;;5.80;3.72;;;;;;;;;;6218594;23;20068;-73
2023/04/30 12:07:59;;;;;;;5.45;3.35;;;;;;;;;;6245277;23;20093;-73
2023/04/30 12:10:25;;;;;;;5.90;3.30;;;;;;;;;;6218528;23;20041;-73
2023/04/30 12:12:53;;;;;;;7.07;4.00;;;;;;;;;;6245076;23;20486;-73
2023/04/30 12:15:25;;;;;;;6.50;3.50;;;;;;;;;;6245703;23;20339;-73
2023/04/30 12:17:51;;;;;;;4.97;3.53;;;;;;;;;;6245238;23;20004;-74
2023/04/30 12:20:17;;;;;;;5.30;3.47;;;;;;;;;;6245628;23;20070;-73
2023/04/30 12:22:43;;;;;;;6.55;4.25;;;;;;;;;;6218030;23;20061;-74
2023/04/30 12:25:15;;;;;;;5.95;3.60;;;;;;;;;;6218316;23;20016;-74
2023/04/30 12:27:51;;;;;;;5.45;3.65;;;;;;;;;;6245095;23;20004;-74
2023/04/30 12:30:24;;;;;;;6.28;3.90;;;;;;;;;;6244144;23;20031;-73
2023/04/30 12:32:51;;;;;;;5.95;3.60;;;;;;;;;;6217891;23;20011;-73
2023/04/30 12:35:28;;;;;;;5.43;3.55;;;;;;;;;;6245363;23;20347;-73
2023/04/30 12:38:02;;;;;;;4.82;3.10;;;;;;;;;;6245328;23;20008;-73
2023/04/30 12:40:27;;;;;;;4.60;3.40;;;;;;;;;;6218484;23;20010;-73
2023/04/30 12:43:01;;;;;;;5.88;3.33;;;;;;;;;;6244796;23;20486;-73
2023/04/30 12:45:46;;;;;;;5.88;3.67;;;;;;;;;;6244777;23;20011;-74
2023/04/30 12:48:13;;;;;;;4.53;3.15;;;;;;;;;;6218698;23;20427;-73
2023/04/30 12:50:38;;;;;;;6.45;3.85;;;;;;;;;;6217497;23;20050;-73
2023/04/30 12:53:06;;;;;;;4.63;3.30;;;;;;;;;;6216614;23;20331;-73
2023/04/30 12:55:33;;;;;;;5.95;3.85;;;;;;;;;;6245214;23;20533;-73
2023/04/30 12:58:16;;;;;;;5.57;3.30;;;;;;;;;;6245268;23;20083;-74
2023/04/30 13:00:48;;;;;;;;;;;;;;;;;;6245373;22;20397;-74
2023/04/30 13:03:16;;;;;;;5.03;3.10;;;;;;;;;;6216586;23;19907;-76
2023/04/30 13:05:47;;;;;;;5.03;3.10;;;;;;;;;;6217188;23;20011;-73
2023/04/30 13:08:13;;;;;;;4.30;2.90;;;;;;;;;;6244994;23;20391;-75
2023/04/30 13:10:38;;;;;;;5.40;3.47;;;;;;;;;;6244491;23;20039;-74
2023/04/30 13:13:03;;;;;;;5.30;3.58;;;;;;;;;;6218056;23;20004;-76
2023/04/30 13:15:29;;;;;;;6.65;3.60;;;;;;;;;;6242782;23;20427;-73
2023/04/30 13:17:54;;;;;;;5.70;3.70;;;;;;;;;;6244416;23;20004;-75
2023/04/30 13:20:20;;;;;;;4.28;3.15;;;;;;;;;;6217787;23;20456;-73
2023/04/30 13:22:45;;;;;;;4.00;2.80;;;;;;;;;;6245856;23;20000;-73
2023/04/30 13:25:11;;;;;;;4.80;2.80;;;;;;;;;;6245829;23;20010;-73
2023/04/30 13:27:36;;;;;;;5.22;3.35;;;;;;;;;;6217784;23;20031;-74
2023/04/30 13:30:03;;;;;;;4.95;3.28;;;;;;;;;;6246137;23;20011;-73
2023/04/30 13:32:28;;;;;;;6.00;3.17;;;;;;;;;;6245871;23;20011;-73
2023/04/30 13:34:54;;;;;;;4.50;2.85;;;;;;;;;;6218414;23;20004;-73
2023/04/30 13:37:20;;;;;;;5.05;3.15;;;;;;;;;;6218933;23;20004;-74
2023/04/30 13:39:45;;;;;;;5.75;3.53;;;;;;;;;;6218704;23;20081;-73
2023/04/30 13:42:12;;;;;;;6.40;3.33;;;;;;;;;;6245964;23;20034;-73
2023/04/30 13:44:38;;;;;;;4.30;2.75;;;;;;;;;;6245795;23;20385;-73
2023/04/30 13:47:04;;;;;;;3.85;2.50;;;;;;;;;;6245754;23;20023;-74
2023/04/30 13:49:29;;;;;;;4.88;3.30;;;;;;;;;;6237467;23;20018;-77
2023/04/30 13:51:54;;;;;;;5.65;2.88;;;;;;;;;;6229739;23;20004;-74
2023/04/30 13:54:20;;;;;;;4.13;2.38;;;;;;;;;;6208316;23;20004;-75
2023/04/30 13:56:47;;;;;;;4.78;2.75;;;;;;;;;;6210712;23;20134;-74
2023/04/30 13:59:13;;;;;;;5.03;2.70;;;;;;;;;;6235927;22;20079;-74
2023/04/30 14:01:39;;;;;;;3.40;2.30;;;;;;;;;;6236159;23;20004;-74
2023/04/30 14:04:04;;;;;;;4.63;2.30;;;;;;;;;;6236177;23;20014;-75
2023/04/30 14:06:30;;;;;;;4.05;2.30;;;;;;;;;;6237566;23;20418;-75
2023/04/30 14:08:56;;;;;;;4.80;2.45;;;;;;;;;;6235910;23;20038;-74
2023/04/30 14:11:21;;;;;;;5.13;2.97;;;;;;;;;;6236042;23;20091;-75
2023/04/30 14:13:46;;;;;;;3.83;2.30;;;;;;;;;;6237876;23;20229;-73
2023/04/30 14:16:12;;;;;;;3.75;2.30;;;;;;;;;;6208616;23;20066;-74
2023/04/30 14:18:37;;;;;;;3.38;2.10;;;;;;;;;;6210102;23;20012;-76
2023/04/30 14:21:03;;;;;;;3.65;2.33;;;;;;;;;;6210301;23;20038;-77
2023/04/30 14:23:28;;;;;;;4.32;2.53;;;;;;;;;;6236150;23;20039;-75
2023/04/30 14:25:54;;;;;;;3.33;2.15;;;;;;;;;;6236313;23;20082;-76
2023/04/30 14:28:19;;;;;;;3.83;1.98;;;;;;;;;;6208899;23;20008;-74
2023/04/30 14:30:45;;;;;;;3.33;1.70;;;;;;;;;;6236472;23;20079;-74
2023/04/30 14:33:11;;;;;;;3.50;1.80;;;;;;;;;;6208533;23;20408;-74
2023/04/30 14:35:37;;;;;;;2.88;1.70;;;;;;;;;;6210296;23;20051;-75
2023/04/30 14:38:02;;;;;;;3.45;2.10;;;;;;;;;;6207653;23;20012;-73
2023/04/30 14:40:28;;;;;;;3.17;1.92;;;;;;;;;;6235389;23;20019;-73
2023/04/30 14:42:53;;;;;;;3.88;1.67;;;;;;;;;;6236376;23;20000;-76
2023/04/30 14:45:19;;;;;;;3.17;1.42;;;;;;;;;;6209698;23;20014;-74